Language selection

My Weather Profile Weather Topics  | 

Atlantic - Newfoundland: Past 24 Hour Conditions

 

Mary's Harbour

07:30 AM NST 30 January 2023
Disclaimer

This table is a summary of hourly weather conditions for the past 24 hours.
Please note that these observations might not always be representative of weather conditions over their associated marine area.

Date / Time
(NST)
Wind(knots) Conditions Visibility(km) Pressure(kPa) Air tempC) Relative humidity(%) Dew pointC) Wind Chill
30 January 2023
7:30 W 3 Cloudy 16 102.5 -19 57 -26 -24
6:30 W 6 Cloudy 16 102.5 -20 57 -26 -27
5:30 WSW 4 Cloudy 16 102.6 -20 56 -27 -26
4:30 WSW 5 Cloudy 16 102.6 -20 57 -27 -27
3:30 SSW 3 Mostly Cloudy 16 102.6 -21 58 -27 -25
2:30 W 8 gust 16 Clear 16 102.6 -21 56 -27 -30
1:30 WSW 3 Clear 16 102.5 -21 56 -27 -25
0:30 W 6 Clear 16 102.5 -21 58 -27 -29
29 January 2023
23:30 W 6 Clear 16 102.5 -20 53 -27 -28
22:30 W 9 gust 16 Clear 16 102.4 -20 55 -26 -29
21:30 W 14 gust 19 Clear 16 102.3 -19 55 -26 -30
20:30 WNW 13 gust 20 Clear 16 102.3 -18 53 -25 -29
19:30 W 10 gust 24 Clear 16 102.1 -17 53 -25 -27
18:30 W 15 gust 23 Clear 16 102.0 -16 52 -24 -27
17:30 W 15 gust 22 Clear 16 101.8 -15 53 -23 -26
16:30 WSW 16 gust 25 Sunny 16 101.6 -14 52 -21 -24
15:30 W 17 gust 28 Sunny 16 101.3 -12 49 -20 -22
14:30 W 19 gust 32 Light Snow 6 101.0 -10 58 -17 -20
13:30 W 17 gust 33 Mainly Sunny 16 100.9 -8 58 -15 -18
12:30 WSW 18 gust 32 Light Snow 10 100.7 -5 63 -11 -13
11:30 SW 15 gust 28 Sunny 16 100.7 -5 70 -9 -12
10:30 SW 16 gust 33 Light Snow 2 100.8 -4 80 -7 -12
9:30 SSW 14 gust 23 Mainly Sunny 16 100.7 -3 84 -5 -9
8:30 S 15 gust 22 Mostly Cloudy 16 100.8 -3 89 -5 -10
7:30 S 14 gust 21 Light Snow 2 101.0 -4 94 -4 -11

Zoom-in to make a selection

Map of Atlantic - Newfoundland marine weather areas Banquereau - 44139 East Chedabucto Bay - 44488 West Chedabucto Bay - 44489 Blanc-Sablon Airport Cap Whittle Chevery Natashquan Airport Heath Point Îles de la Madeleine Airport Miscou Island Eskasoni (First Nations) Grand Étang Ingonish Beach North Mountain St.Paul Island J.A. Douglas McCurdy Sydney Airport Charlottetown Airport East Point North Cape Argentia Berry Hill Bonavista Burgeo Cape Race Corner Brook Daniel's Harbour Englee Ferolle Point La Scie Port aux Basques Sagona Island St. Anthony Airport St. John's Int'l Airport St. Lawrence Stephenville Airport Twillingate Winterland Branch Hill Wreckhouse Grates Cove Pool's Island Marticot Island Long Pond Cartwright Airport Mary's Harbour
Legend:
buoy Buoy
land station Land Station

Atlantic - Newfoundland Area

Another Region

What we are doing

Date modified: